sensor_id;sensor_type;location;lat;lon;timestamp;temperature;humidity
1806;DHT22;901;48.142;11.516;2022-09-29T00:01:35;9.10;99.90
1806;DHT22;901;48.142;11.516;2022-09-29T00:04:02;9.10;99.90
1806;DHT22;901;48.142;11.516;2022-09-29T00:06:29;9.00;99.90
1806;DHT22;901;48.142;11.516;2022-09-29T00:08:57;9.00;99.90
1806;DHT22;901;48.142;11.516;2022-09-29T00:11:25;9.00;99.90
1806;DHT22;901;48.142;11.516;2022-09-29T00:13:53;9.00;99.90
1806;DHT22;901;48.142;11.516;2022-09-29T00:16:20;9.00;99.90
1806;DHT22;901;48.142;11.516;2022-09-29T00:18:47;9.00;99.90
1806;DHT22;901;48.142;11.516;2022-09-29T00:21:16;9.00;99.90
1806;DHT22;901;48.142;11.516;2022-09-29T00:23:44;9.00;99.90
1806;DHT22;901;48.142;11.516;2022-09-29T00:26:13;9.10;99.90
1806;DHT22;901;48.142;11.516;2022-09-29T00:28:46;9.10;99.90
1806;DHT22;901;48.142;11.516;2022-09-29T00:31:14;9.10;99.90
1806;DHT22;901;48.142;11.516;2022-09-29T00:33:41;9.10;99.90
1806;DHT22;901;48.142;11.516;2022-09-29T00:36:10;9.20;99.90
1806;DHT22;901;48.142;11.516;2022-09-29T00:38:39;9.20;99.90
1806;DHT22;901;48.142;11.516;2022-09-29T00:41:07;9.20;99.90
1806;DHT22;901;48.142;11.516;2022-09-29T00:43:51;9.20;99.90
1806;DHT22;901;48.142;11.516;2022-09-29T00:46:23;9.20;99.90
1806;DHT22;901;48.142;11.516;2022-09-29T00:48:53;9.20;99.90
1806;DHT22;901;48.142;11.516;2022-09-29T00:51:21;9.20;99.90
1806;DHT22;901;48.142;11.516;2022-09-29T00:53:49;9.20;99.90
1806;DHT22;901;48.142;11.516;2022-09-29T00:56:17;9.20;99.90
1806;DHT22;901;48.142;11.516;2022-09-29T00:58:51;9.20;99.90
1806;DHT22;901;48.142;11.516;2022-09-29T01:01:20;9.20;99.90
1806;DHT22;901;48.142;11.516;2022-09-29T01:03:48;9.10;99.90
1806;DHT22;901;48.142;11.516;2022-09-29T01:06:20;9.10;99.90
1806;DHT22;901;48.142;11.516;2022-09-29T01:08:51;9.10;99.90
1806;DHT22;901;48.142;11.516;2022-09-29T01:11:22;9.00;99.90
1806;DHT22;901;48.142;11.516;2022-09-29T01:13:50;8.90;99.90
1806;DHT22;901;48.142;11.516;2022-09-29T01:16:17;8.80;99.90
1806;DHT22;901;48.142;11.516;2022-09-29T01:18:45;8.80;99.90
1806;DHT22;901;48.142;11.516;2022-09-29T01:21:16;8.80;99.90
1806;DHT22;901;48.142;11.516;2022-09-29T01:24:27;8.80;99.90
1806;DHT22;901;48.142;11.516;2022-09-29T01:27:06;8.80;99.90
1806;DHT22;901;48.142;11.516;2022-09-29T01:30:12;8.80;99.90
1806;DHT22;901;48.142;11.516;2022-09-29T01:33:02;8.80;99.90
1806;DHT22;901;48.142;11.516;2022-09-29T01:35:44;8.80;99.90
1806;DHT22;901;48.142;11.516;2022-09-29T01:38:26;8.80;99.90
1806;DHT22;901;48.142;11.516;2022-09-29T01:41:02;8.80;99.90
1806;DHT22;901;48.142;11.516;2022-09-29T01:43:34;8.90;99.90
1806;DHT22;901;48.142;11.516;2022-09-29T01:46:03;8.90;99.90
1806;DHT22;901;48.142;11.516;2022-09-29T01:48:37;8.80;99.90
1806;DHT22;901;48.142;11.516;2022-09-29T01:51:09;8.90;99.90
1806;DHT22;901;48.142;11.516;2022-09-29T01:53:41;8.90;99.90
1806;DHT22;901;48.142;11.516;2022-09-29T01:56:15;8.90;99.90
1806;DHT22;901;48.142;11.516;2022-09-29T01:58:48;8.90;99.90
1806;DHT22;901;48.142;11.516;2022-09-29T02:01:20;8.90;99.90
1806;DHT22;901;48.142;11.516;2022-09-29T02:03:54;8.90;99.90
1806;DHT22;901;48.142;11.516;2022-09-29T02:06:26;8.90;99.90
1806;DHT22;901;48.142;11.516;2022-09-29T02:08:55;8.90;99.90
1806;DHT22;901;48.142;11.516;2022-09-29T02:11:23;8.90;99.90
1806;DHT22;901;48.142;11.516;2022-09-29T02:13:55;8.90;99.90
1806;DHT22;901;48.142;11.516;2022-09-29T02:16:27;8.90;99.90
1806;DHT22;901;48.142;11.516;2022-09-29T02:18:59;8.90;99.90
1806;DHT22;901;48.142;11.516;2022-09-29T02:21:28;8.90;99.90
1806;DHT22;901;48.142;11.516;2022-09-29T02:23:55;8.90;99.90
1806;DHT22;901;48.142;11.516;2022-09-29T02:26:23;8.90;99.90
1806;DHT22;901;48.142;11.516;2022-09-29T02:28:52;8.90;99.90
1806;DHT22;901;48.142;11.516;2022-09-29T02:31:21;8.90;99.90
1806;DHT22;901;48.142;11.516;2022-09-29T02:33:48;8.90;99.90
1806;DHT22;901;48.142;11.516;2022-09-29T02:36:24;8.90;99.90
1806;DHT22;901;48.142;11.516;2022-09-29T02:39:01;8.90;99.90
1806;DHT22;901;48.142;11.516;2022-09-29T02:41:34;8.90;99.90
1806;DHT22;901;48.142;11.516;2022-09-29T02:44:20;8.90;99.90
1806;DHT22;901;48.142;11.516;2022-09-29T02:47:03;8.90;99.90
1806;DHT22;901;48.142;11.516;2022-09-29T02:49:48;8.90;99.90
1806;DHT22;901;48.142;11.516;2022-09-29T02:52:24;8.90;99.90
1806;DHT22;901;48.142;11.516;2022-09-29T02:55:02;8.90;99.90
1806;DHT22;901;48.142;11.516;2022-09-29T02:57:39;8.90;99.90
1806;DHT22;901;48.142;11.516;2022-09-29T03:00:15;8.90;99.90
1806;DHT22;901;48.142;11.516;2022-09-29T03:02:43;8.90;99.90
1806;DHT22;901;48.142;11.516;2022-09-29T03:05:12;8.90;99.90
1806;DHT22;901;48.142;11.516;2022-09-29T03:07:40;8.90;99.90
1806;DHT22;901;48.142;11.516;2022-09-29T03:10:09;8.90;99.90
1806;DHT22;901;48.142;11.516;2022-09-29T03:12:36;8.90;99.90
1806;DHT22;901;48.142;11.516;2022-09-29T03:15:04;8.90;99.90
1806;DHT22;901;48.142;11.516;2022-09-29T03:17:31;8.90;99.90
1806;DHT22;901;48.142;11.516;2022-09-29T03:19:58;8.90;99.90
1806;DHT22;901;48.142;11.516;2022-09-29T03:22:25;8.90;99.90
1806;DHT22;901;48.142;11.516;2022-09-29T03:24:53;8.90;99.90
1806;DHT22;901;48.142;11.516;2022-09-29T03:27:20;8.90;99.90
1806;DHT22;901;48.142;11.516;2022-09-29T03:29:47;8.80;99.90
1806;DHT22;901;48.142;11.516;2022-09-29T03:32:14;8.90;99.90
1806;DHT22;901;48.142;11.516;2022-09-29T03:34:41;8.90;99.90
1806;DHT22;901;48.142;11.516;2022-09-29T03:37:08;8.90;99.90
1806;DHT22;901;48.142;11.516;2022-09-29T03:39:35;8.90;99.90
1806;DHT22;901;48.142;11.516;2022-09-29T03:42:03;8.90;99.90
1806;DHT22;901;48.142;11.516;2022-09-29T03:44:30;8.90;99.90
1806;DHT22;901;48.142;11.516;2022-09-29T03:46:57;8.90;99.90
1806;DHT22;901;48.142;11.516;2022-09-29T03:49:25;8.90;99.90
1806;DHT22;901;48.142;11.516;2022-09-29T03:51:52;8.90;99.90
1806;DHT22;901;48.142;11.516;2022-09-29T03:54:18;8.90;99.90
1806;DHT22;901;48.142;11.516;2022-09-29T03:56:45;9.00;99.90
1806;DHT22;901;48.142;11.516;2022-09-29T03:59:13;9.00;99.90
1806;DHT22;901;48.142;11.516;2022-09-29T04:01:40;9.00;99.90
1806;DHT22;901;48.142;11.516;2022-09-29T04:04:08;9.00;99.90
1806;DHT22;901;48.142;11.516;2022-09-29T04:06:35;9.00;99.90
1806;DHT22;901;48.142;11.516;2022-09-29T04:09:02;9.00;99.90
1806;DHT22;901;48.142;11.516;2022-09-29T04:11:29;9.00;99.90
1806;DHT22;901;48.142;11.516;2022-09-29T04:13:56;9.00;99.90
1806;DHT22;901;48.142;11.516;2022-09-29T04:16:24;9.10;99.90
1806;DHT22;901;48.142;11.516;2022-09-29T04:18:51;9.10;99.90
1806;DHT22;901;48.142;11.516;2022-09-29T04:21:18;9.10;99.90
1806;DHT22;901;48.142;11.516;2022-09-29T04:23:44;9.20;99.90
1806;DHT22;901;48.142;11.516;2022-09-29T04:26:11;9.20;99.90
1806;DHT22;901;48.142;11.516;2022-09-29T04:28:38;9.20;99.90
1806;DHT22;901;48.142;11.516;2022-09-29T04:31:05;9.20;99.90
1806;DHT22;901;48.142;11.516;2022-09-29T04:33:34;9.20;99.90
1806;DHT22;901;48.142;11.516;2022-09-29T04:36:01;9.20;99.90
1806;DHT22;901;48.142;11.516;2022-09-29T04:38:28;9.20;99.90
1806;DHT22;901;48.142;11.516;2022-09-29T04:40:55;9.20;99.90
1806;DHT22;901;48.142;11.516;2022-09-29T04:43:22;9.30;99.90
1806;DHT22;901;48.142;11.516;2022-09-29T04:45:49;9.30;99.90
1806;DHT22;901;48.142;11.516;2022-09-29T04:48:16;9.30;99.90
1806;DHT22;901;48.142;11.516;2022-09-29T04:50:44;9.30;99.90
1806;DHT22;901;48.142;11.516;2022-09-29T04:53:13;9.30;99.90
1806;DHT22;901;48.142;11.516;2022-09-29T04:55:40;9.20;99.90
1806;DHT22;901;48.142;11.516;2022-09-29T04:58:07;9.20;99.90
1806;DHT22;901;48.142;11.516;2022-09-29T05:00:33;9.20;99.90
1806;DHT22;901;48.142;11.516;2022-09-29T05:03:00;9.10;99.90
1806;DHT22;901;48.142;11.516;2022-09-29T05:05:28;9.10;99.90
1806;DHT22;901;48.142;11.516;2022-09-29T05:07:56;9.00;99.90
1806;DHT22;901;48.142;11.516;2022-09-29T05:10:24;8.90;99.90
1806;DHT22;901;48.142;11.516;2022-09-29T05:12:52;8.90;99.90
1806;DHT22;901;48.142;11.516;2022-09-29T05:15:19;8.90;99.90
1806;DHT22;901;48.142;11.516;2022-09-29T05:17:46;8.90;99.90
1806;DHT22;901;48.142;11.516;2022-09-29T05:20:12;8.90;99.90
1806;DHT22;901;48.142;11.516;2022-09-29T05:22:41;8.90;99.90
1806;DHT22;901;48.142;11.516;2022-09-29T05:25:09;8.90;99.90
1806;DHT22;901;48.142;11.516;2022-09-29T05:27:37;8.90;99.90
1806;DHT22;901;48.142;11.516;2022-09-29T05:30:05;8.90;99.90
1806;DHT22;901;48.142;11.516;2022-09-29T05:32:32;8.90;99.90
1806;DHT22;901;48.142;11.516;2022-09-29T05:34:59;8.90;99.90
1806;DHT22;901;48.142;11.516;2022-09-29T05:37:27;8.90;99.90
1806;DHT22;901;48.142;11.516;2022-09-29T05:39:53;8.90;99.90
1806;DHT22;901;48.142;11.516;2022-09-29T05:42:22;8.90;99.90
1806;DHT22;901;48.142;11.516;2022-09-29T05:44:50;9.00;99.90
1806;DHT22;901;48.142;11.516;2022-09-29T05:47:16;9.00;99.90
1806;DHT22;901;48.142;11.516;2022-09-29T05:49:44;9.10;99.90
1806;DHT22;901;48.142;11.516;2022-09-29T05:52:11;9.10;99.90
1806;DHT22;901;48.142;11.516;2022-09-29T05:54:39;9.30;99.90
1806;DHT22;901;48.142;11.516;2022-09-29T05:57:06;9.30;99.90
1806;DHT22;901;48.142;11.516;2022-09-29T05:59:34;9.30;99.90
1806;DHT22;901;48.142;11.516;2022-09-29T06:02:01;9.40;99.90
1806;DHT22;901;48.142;11.516;2022-09-29T06:04:28;9.40;99.90
1806;DHT22;901;48.142;11.516;2022-09-29T06:06:55;9.50;99.90
1806;DHT22;901;48.142;11.516;2022-09-29T06:09:22;9.50;99.90
1806;DHT22;901;48.142;11.516;2022-09-29T06:11:48;9.50;99.90
1806;DHT22;901;48.142;11.516;2022-09-29T06:14:15;9.70;99.90
1806;DHT22;901;48.142;11.516;2022-09-29T06:16:43;9.70;99.90
1806;DHT22;901;48.142;11.516;2022-09-29T06:19:10;9.80;99.90
1806;DHT22;901;48.142;11.516;2022-09-29T06:21:38;9.90;99.90
1806;DHT22;901;48.142;11.516;2022-09-29T06:24:05;9.90;99.90
1806;DHT22;901;48.142;11.516;2022-09-29T06:26:33;10.00;99.90
1806;DHT22;901;48.142;11.516;2022-09-29T06:29:00;10.10;99.90
1806;DHT22;901;48.142;11.516;2022-09-29T06:31:29;10.10;99.90
1806;DHT22;901;48.142;11.516;2022-09-29T06:33:58;10.20;99.90
1806;DHT22;901;48.142;11.516;2022-09-29T06:36:29;10.30;99.90
1806;DHT22;901;48.142;11.516;2022-09-29T06:39:14;10.30;99.90
1806;DHT22;901;48.142;11.516;2022-09-29T06:41:42;10.30;99.90
1806;DHT22;901;48.142;11.516;2022-09-29T06:44:13;10.40;99.90
1806;DHT22;901;48.142;11.516;2022-09-29T06:46:40;10.50;99.90
1806;DHT22;901;48.142;11.516;2022-09-29T06:49:09;10.60;99.90
1806;DHT22;901;48.142;11.516;2022-09-29T06:51:36;10.70;99.90
1806;DHT22;901;48.142;11.516;2022-09-29T06:54:03;10.80;99.90
1806;DHT22;901;48.142;11.516;2022-09-29T06:56:30;10.80;99.90
1806;DHT22;901;48.142;11.516;2022-09-29T06:58:56;10.90;99.90
1806;DHT22;901;48.142;11.516;2022-09-29T07:01:23;11.00;99.90
1806;DHT22;901;48.142;11.516;2022-09-29T07:03:50;11.00;99.90
1806;DHT22;901;48.142;11.516;2022-09-29T07:06:19;11.10;99.90
1806;DHT22;901;48.142;11.516;2022-09-29T07:08:46;11.20;99.90
1806;DHT22;901;48.142;11.516;2022-09-29T07:11:12;11.20;99.90
1806;DHT22;901;48.142;11.516;2022-09-29T07:13:40;11.30;99.90
1806;DHT22;901;48.142;11.516;2022-09-29T07:16:09;11.40;99.90
1806;DHT22;901;48.142;11.516;2022-09-29T07:18:38;11.50;99.90
1806;DHT22;901;48.142;11.516;2022-09-29T07:21:07;11.60;99.90
1806;DHT22;901;48.142;11.516;2022-09-29T07:23:36;11.70;99.90
1806;DHT22;901;48.142;11.516;2022-09-29T07:26:05;11.70;99.90
1806;DHT22;901;48.142;11.516;2022-09-29T07:28:32;11.80;99.90
1806;DHT22;901;48.142;11.516;2022-09-29T07:31:00;11.90;99.90
1806;DHT22;901;48.142;11.516;2022-09-29T07:33:27;12.10;99.90
1806;DHT22;901;48.142;11.516;2022-09-29T07:35:56;12.20;99.90
1806;DHT22;901;48.142;11.516;2022-09-29T07:38:25;12.30;99.90
1806;DHT22;901;48.142;11.516;2022-09-29T07:40:53;12.40;99.90
1806;DHT22;901;48.142;11.516;2022-09-29T07:43:20;12.50;99.90
1806;DHT22;901;48.142;11.516;2022-09-29T07:45:48;12.60;99.90
1806;DHT22;901;48.142;11.516;2022-09-29T07:48:15;12.70;99.90
1806;DHT22;901;48.142;11.516;2022-09-29T07:50:43;12.70;99.90
1806;DHT22;901;48.142;11.516;2022-09-29T07:53:11;12.70;99.90
1806;DHT22;901;48.142;11.516;2022-09-29T07:55:38;12.80;99.90
1806;DHT22;901;48.142;11.516;2022-09-29T07:58:07;12.80;99.90
1806;DHT22;901;48.142;11.516;2022-09-29T08:00:33;12.90;99.90
1806;DHT22;901;48.142;11.516;2022-09-29T08:03:01;13.10;99.90
1806;DHT22;901;48.142;11.516;2022-09-29T08:05:28;13.20;99.90
1806;DHT22;901;48.142;11.516;2022-09-29T08:07:58;13.40;99.90
1806;DHT22;901;48.142;11.516;2022-09-29T08:10:25;13.40;99.90
1806;DHT22;901;48.142;11.516;2022-09-29T08:12:52;13.30;99.90
1806;DHT22;901;48.142;11.516;2022-09-29T08:15:21;13.30;99.90
1806;DHT22;901;48.142;11.516;2022-09-29T08:17:48;13.50;99.90
1806;DHT22;901;48.142;11.516;2022-09-29T08:20:14;13.40;99.90
1806;DHT22;901;48.142;11.516;2022-09-29T08:22:41;13.50;99.90
1806;DHT22;901;48.142;11.516;2022-09-29T08:25:08;13.60;99.90
1806;DHT22;901;48.142;11.516;2022-09-29T08:27:35;13.40;99.90
1806;DHT22;901;48.142;11.516;2022-09-29T08:30:02;13.00;99.90
1806;DHT22;901;48.142;11.516;2022-09-29T08:32:31;12.90;99.90
1806;DHT22;901;48.142;11.516;2022-09-29T08:34:58;12.70;99.90
1806;DHT22;901;48.142;11.516;2022-09-29T08:37:27;12.60;99.90
1806;DHT22;901;48.142;11.516;2022-09-29T08:39:55;12.70;99.90
1806;DHT22;901;48.142;11.516;2022-09-29T08:42:26;12.70;99.90
1806;DHT22;901;48.142;11.516;2022-09-29T08:44:58;12.50;99.90
1806;DHT22;901;48.142;11.516;2022-09-29T08:47:28;12.20;99.90
1806;DHT22;901;48.142;11.516;2022-09-29T08:50:02;12.20;99.90
1806;DHT22;901;48.142;11.516;2022-09-29T08:52:32;12.20;99.90
1806;DHT22;901;48.142;11.516;2022-09-29T08:55:05;12.20;99.90
1806;DHT22;901;48.142;11.516;2022-09-29T08:57:38;12.20;99.90
1806;DHT22;901;48.142;11.516;2022-09-29T09:00:09;12.20;99.90
1806;DHT22;901;48.142;11.516;2022-09-29T09:03:01;12.30;99.90
1806;DHT22;901;48.142;11.516;2022-09-29T09:06:06;12.30;99.90
1806;DHT22;901;48.142;11.516;2022-09-29T09:08:51;12.20;99.90
1806;DHT22;901;48.142;11.516;2022-09-29T09:11:32;12.20;99.90
1806;DHT22;901;48.142;11.516;2022-09-29T09:14:10;12.30;99.90
1806;DHT22;901;48.142;11.516;2022-09-29T09:16:48;12.30;99.90
1806;DHT22;901;48.142;11.516;2022-09-29T09:19:42;12.30;99.90
1806;DHT22;901;48.142;11.516;2022-09-29T09:22:23;11.90;99.90
1806;DHT22;901;48.142;11.516;2022-09-29T09:24:58;12.00;99.90
1806;DHT22;901;48.142;11.516;2022-09-29T09:27:36;11.90;99.90
1806;DHT22;901;48.142;11.516;2022-09-29T09:30:16;11.90;99.90
1806;DHT22;901;48.142;11.516;2022-09-29T09:32:52;11.70;99.90
1806;DHT22;901;48.142;11.516;2022-09-29T09:35:29;11.70;99.90
1806;DHT22;901;48.142;11.516;2022-09-29T09:38:04;11.70;99.90
1806;DHT22;901;48.142;11.516;2022-09-29T09:40:38;11.60;99.90
1806;DHT22;901;48.142;11.516;2022-09-29T09:43:10;11.70;99.90
1806;DHT22;901;48.142;11.516;2022-09-29T09:45:42;11.90;99.90
1806;DHT22;901;48.142;11.516;2022-09-29T09:48:15;12.10;99.90
1806;DHT22;901;48.142;11.516;2022-09-29T09:50:45;12.20;99.90
1806;DHT22;901;48.142;11.516;2022-09-29T09:53:19;12.50;99.90
1806;DHT22;901;48.142;11.516;2022-09-29T09:55:56;12.50;99.90
1806;DHT22;901;48.142;11.516;2022-09-29T09:58:56;12.70;99.90
1806;DHT22;901;48.142;11.516;2022-09-29T10:01:25;13.00;99.90
1806;DHT22;901;48.142;11.516;2022-09-29T10:03:52;12.80;99.90
1806;DHT22;901;48.142;11.516;2022-09-29T10:06:23;12.60;99.90
1806;DHT22;901;48.142;11.516;2022-09-29T10:08:54;12.70;99.90
1806;DHT22;901;48.142;11.516;2022-09-29T10:11:23;12.80;99.90
1806;DHT22;901;48.142;11.516;2022-09-29T10:13:57;13.00;99.90
1806;DHT22;901;48.142;11.516;2022-09-29T10:16:30;13.20;99.90
1806;DHT22;901;48.142;11.516;2022-09-29T10:19:04;13.20;99.90
1806;DHT22;901;48.142;11.516;2022-09-29T10:21:35;13.20;99.90
1806;DHT22;901;48.142;11.516;2022-09-29T10:24:07;13.30;99.90
1806;DHT22;901;48.142;11.516;2022-09-29T10:26:54;13.20;99.90
1806;DHT22;901;48.142;11.516;2022-09-29T10:29:24;13.20;99.90
1806;DHT22;901;48.142;11.516;2022-09-29T10:32:05;13.50;99.90
1806;DHT22;901;48.142;11.516;2022-09-29T10:34:34;13.50;99.90
1806;DHT22;901;48.142;11.516;2022-09-29T10:37:04;13.80;99.90
1806;DHT22;901;48.142;11.516;2022-09-29T10:39:38;13.90;99.90
1806;DHT22;901;48.142;11.516;2022-09-29T10:42:18;14.10;99.90
1806;DHT22;901;48.142;11.516;2022-09-29T10:44:50;14.20;99.90
1806;DHT22;901;48.142;11.516;2022-09-29T10:47:19;14.30;99.90
1806;DHT22;901;48.142;11.516;2022-09-29T10:50:11;14.40;99.90
1806;DHT22;901;48.142;11.516;2022-09-29T10:52:42;14.40;99.90
1806;DHT22;901;48.142;11.516;2022-09-29T10:55:17;14.40;99.90
1806;DHT22;901;48.142;11.516;2022-09-29T10:57:46;14.40;99.90
1806;DHT22;901;48.142;11.516;2022-09-29T11:00:27;14.40;99.90
1806;DHT22;901;48.142;11.516;2022-09-29T11:03:06;14.40;99.90
1806;DHT22;901;48.142;11.516;2022-09-29T11:08:27;14.60;99.90
1806;DHT22;901;48.142;11.516;2022-09-29T11:11:19;14.70;99.90
1806;DHT22;901;48.142;11.516;2022-09-29T11:13:51;14.80;99.90
1806;DHT22;901;48.142;11.516;2022-09-29T11:16:26;14.90;99.90
1806;DHT22;901;48.142;11.516;2022-09-29T11:18:55;15.00;99.90
1806;DHT22;901;48.142;11.516;2022-09-29T11:22:17;15.10;99.90
1806;DHT22;901;48.142;11.516;2022-09-29T11:25:15;15.30;99.90
1806;DHT22;901;48.142;11.516;2022-09-29T11:27:55;15.40;99.90
1806;DHT22;901;48.142;11.516;2022-09-29T11:30:26;15.20;99.90
1806;DHT22;901;48.142;11.516;2022-09-29T11:33:11;14.60;99.90
1806;DHT22;901;48.142;11.516;2022-09-29T11:35:48;14.30;99.90
1806;DHT22;901;48.142;11.516;2022-09-29T11:38:34;14.10;99.90
1806;DHT22;901;48.142;11.516;2022-09-29T11:41:21;14.10;99.90
1806;DHT22;901;48.142;11.516;2022-09-29T11:43:55;13.70;99.90
1806;DHT22;901;48.142;11.516;2022-09-29T11:46:33;13.30;99.90
1806;DHT22;901;48.142;11.516;2022-09-29T11:49:25;13.30;99.90
1806;DHT22;901;48.142;11.516;2022-09-29T11:52:09;13.00;99.90
1806;DHT22;901;48.142;11.516;2022-09-29T11:57:45;12.90;99.90
1806;DHT22;901;48.142;11.516;2022-09-29T12:00:19;13.10;99.90
1806;DHT22;901;48.142;11.516;2022-09-29T12:03:24;13.10;99.90
1806;DHT22;901;48.142;11.516;2022-09-29T12:06:45;13.40;99.90
1806;DHT22;901;48.142;11.516;2022-09-29T12:09:33;13.60;99.90
1806;DHT22;901;48.142;11.516;2022-09-29T12:12:07;13.80;99.90
1806;DHT22;901;48.142;11.516;2022-09-29T12:14:49;13.80;99.90
1806;DHT22;901;48.142;11.516;2022-09-29T12:17:20;14.10;99.90
1806;DHT22;901;48.142;11.516;2022-09-29T12:19:51;14.00;99.90
1806;DHT22;901;48.142;11.516;2022-09-29T12:22:19;14.20;99.90
1806;DHT22;901;48.142;11.516;2022-09-29T12:24:47;14.10;99.90
1806;DHT22;901;48.142;11.516;2022-09-29T12:27:20;14.40;99.90
1806;DHT22;901;48.142;11.516;2022-09-29T12:29:51;14.70;99.90
1806;DHT22;901;48.142;11.516;2022-09-29T12:32:24;14.90;99.90
1806;DHT22;901;48.142;11.516;2022-09-29T12:34:55;15.00;99.90
1806;DHT22;901;48.142;11.516;2022-09-29T12:37:28;15.20;99.90
1806;DHT22;901;48.142;11.516;2022-09-29T12:40:02;15.00;99.90
1806;DHT22;901;48.142;11.516;2022-09-29T12:42:45;15.10;99.90
1806;DHT22;901;48.142;11.516;2022-09-29T12:45:20;15.10;99.90
1806;DHT22;901;48.142;11.516;2022-09-29T12:48:05;15.10;99.90
1806;DHT22;901;48.142;11.516;2022-09-29T12:50:43;14.80;99.90
1806;DHT22;901;48.142;11.516;2022-09-29T12:53:22;14.80;99.90
1806;DHT22;901;48.142;11.516;2022-09-29T12:56:01;14.90;99.90
1806;DHT22;901;48.142;11.516;2022-09-29T12:58:42;14.80;99.90
1806;DHT22;901;48.142;11.516;2022-09-29T13:01:29;14.70;99.90
1806;DHT22;901;48.142;11.516;2022-09-29T13:04:49;14.70;99.90
1806;DHT22;901;48.142;11.516;2022-09-29T13:07:37;14.70;99.90
1806;DHT22;901;48.142;11.516;2022-09-29T13:10:37;14.60;99.90
1806;DHT22;901;48.142;11.516;2022-09-29T13:13:27;14.70;99.90
1806;DHT22;901;48.142;11.516;2022-09-29T13:16:06;14.50;99.90
1806;DHT22;901;48.142;11.516;2022-09-29T13:21:48;14.00;99.90
1806;DHT22;901;48.142;11.516;2022-09-29T13:24:25;14.30;99.90
1806;DHT22;901;48.142;11.516;2022-09-29T13:27:15;14.20;99.90
1806;DHT22;901;48.142;11.516;2022-09-29T13:29:53;14.20;99.90
1806;DHT22;901;48.142;11.516;2022-09-29T13:32:23;13.80;99.90
1806;DHT22;901;48.142;11.516;2022-09-29T13:34:54;13.60;99.90
1806;DHT22;901;48.142;11.516;2022-09-29T13:37:25;13.80;99.90
1806;DHT22;901;48.142;11.516;2022-09-29T13:39:57;13.70;99.90
1806;DHT22;901;48.142;11.516;2022-09-29T13:42:37;13.40;99.90
1806;DHT22;901;48.142;11.516;2022-09-29T13:48:00;13.00;99.90
1806;DHT22;901;48.142;11.516;2022-09-29T13:50:42;12.70;99.90
1806;DHT22;901;48.142;11.516;2022-09-29T13:53:33;12.70;99.90
1806;DHT22;901;48.142;11.516;2022-09-29T13:56:16;12.70;99.90
1806;DHT22;901;48.142;11.516;2022-09-29T13:59:00;12.40;99.90
1806;DHT22;901;48.142;11.516;2022-09-29T14:01:30;12.30;99.90
1806;DHT22;901;48.142;11.516;2022-09-29T14:03:57;12.20;99.90
1806;DHT22;901;48.142;11.516;2022-09-29T14:06:25;12.00;99.90
1806;DHT22;901;48.142;11.516;2022-09-29T14:08:59;11.90;99.90
1806;DHT22;901;48.142;11.516;2022-09-29T14:11:30;11.80;99.90
1806;DHT22;901;48.142;11.516;2022-09-29T14:14:02;11.70;99.90
1806;DHT22;901;48.142;11.516;2022-09-29T14:16:42;11.70;99.90
1806;DHT22;901;48.142;11.516;2022-09-29T14:22:18;11.70;99.90
1806;DHT22;901;48.142;11.516;2022-09-29T14:25:20;11.60;99.90
1806;DHT22;901;48.142;11.516;2022-09-29T14:27:45;11.40;99.90
1806;DHT22;901;48.142;11.516;2022-09-29T14:30:16;11.50;99.90
1806;DHT22;901;48.142;11.516;2022-09-29T14:32:52;11.50;99.90
1806;DHT22;901;48.142;11.516;2022-09-29T14:35:26;11.40;99.90
1806;DHT22;901;48.142;11.516;2022-09-29T14:38:01;11.30;99.90
1806;DHT22;901;48.142;11.516;2022-09-29T14:40:30;11.30;99.90
1806;DHT22;901;48.142;11.516;2022-09-29T14:43:10;11.40;99.90
1806;DHT22;901;48.142;11.516;2022-09-29T14:45:53;11.50;99.90
1806;DHT22;901;48.142;11.516;2022-09-29T14:48:50;11.50;99.90
1806;DHT22;901;48.142;11.516;2022-09-29T14:51:41;11.50;99.90
1806;DHT22;901;48.142;11.516;2022-09-29T14:54:33;11.40;99.90
1806;DHT22;901;48.142;11.516;2022-09-29T14:57:19;11.30;99.90
1806;DHT22;901;48.142;11.516;2022-09-29T15:00:00;11.30;99.90
1806;DHT22;901;48.142;11.516;2022-09-29T15:02:28;11.30;99.90
1806;DHT22;901;48.142;11.516;2022-09-29T15:04:56;11.20;99.90
1806;DHT22;901;48.142;11.516;2022-09-29T15:07:24;11.30;99.90
1806;DHT22;901;48.142;11.516;2022-09-29T15:09:53;11.40;99.90
1806;DHT22;901;48.142;11.516;2022-09-29T15:12:22;11.50;99.90
1806;DHT22;901;48.142;11.516;2022-09-29T15:14:52;11.60;99.90
1806;DHT22;901;48.142;11.516;2022-09-29T15:17:30;11.60;99.90
1806;DHT22;901;48.142;11.516;2022-09-29T15:20:04;11.60;99.90
1806;DHT22;901;48.142;11.516;2022-09-29T15:22:46;11.60;99.90
1806;DHT22;901;48.142;11.516;2022-09-29T15:25:23;11.60;99.90
1806;DHT22;901;48.142;11.516;2022-09-29T15:27:53;11.60;99.90
1806;DHT22;901;48.142;11.516;2022-09-29T15:30:22;11.50;99.90
1806;DHT22;901;48.142;11.516;2022-09-29T15:32:50;11.60;99.90
1806;DHT22;901;48.142;11.516;2022-09-29T15:35:20;11.60;99.90
1806;DHT22;901;48.142;11.516;2022-09-29T15:38:14;11.60;99.90
1806;DHT22;901;48.142;11.516;2022-09-29T15:40:41;11.50;99.90
1806;DHT22;901;48.142;11.516;2022-09-29T15:43:19;11.40;99.90
1806;DHT22;901;48.142;11.516;2022-09-29T15:45:53;11.10;99.90
1806;DHT22;901;48.142;11.516;2022-09-29T15:48:22;11.10;99.90
1806;DHT22;901;48.142;11.516;2022-09-29T15:50:50;11.00;99.90
1806;DHT22;901;48.142;11.516;2022-09-29T15:53:20;11.10;99.90
1806;DHT22;901;48.142;11.516;2022-09-29T15:55:48;10.90;99.90
1806;DHT22;901;48.142;11.516;2022-09-29T15:58:42;10.80;99.90
1806;DHT22;901;48.142;11.516;2022-09-29T16:01:14;10.60;99.90
1806;DHT22;901;48.142;11.516;2022-09-29T16:03:45;10.50;99.90
1806;DHT22;901;48.142;11.516;2022-09-29T16:06:24;10.60;99.90
1806;DHT22;901;48.142;11.516;2022-09-29T16:08:55;10.50;99.90
1806;DHT22;901;48.142;11.516;2022-09-29T16:11:24;10.50;99.90
1806;DHT22;901;48.142;11.516;2022-09-29T16:13:54;10.50;99.90
1806;DHT22;901;48.142;11.516;2022-09-29T16:16:28;10.50;99.90
1806;DHT22;901;48.142;11.516;2022-09-29T16:19:01;10.50;99.90
1806;DHT22;901;48.142;11.516;2022-09-29T16:21:35;10.50;99.90
1806;DHT22;901;48.142;11.516;2022-09-29T16:24:10;10.60;99.90
1806;DHT22;901;48.142;11.516;2022-09-29T16:26:40;10.70;99.90
1806;DHT22;901;48.142;11.516;2022-09-29T16:29:28;10.70;99.90
1806;DHT22;901;48.142;11.516;2022-09-29T16:31:57;10.50;99.90
1806;DHT22;901;48.142;11.516;2022-09-29T16:34:30;10.40;99.90
1806;DHT22;901;48.142;11.516;2022-09-29T16:36:59;10.40;99.90
1806;DHT22;901;48.142;11.516;2022-09-29T16:39:28;10.50;99.90
1806;DHT22;901;48.142;11.516;2022-09-29T16:41:58;10.50;99.90
1806;DHT22;901;48.142;11.516;2022-09-29T16:44:29;10.50;99.90
1806;DHT22;901;48.142;11.516;2022-09-29T16:46:59;10.60;99.90
1806;DHT22;901;48.142;11.516;2022-09-29T16:49:28;10.60;99.90
1806;DHT22;901;48.142;11.516;2022-09-29T16:52:00;10.60;99.90
1806;DHT22;901;48.142;11.516;2022-09-29T16:54:31;10.60;99.90
1806;DHT22;901;48.142;11.516;2022-09-29T16:57:18;10.60;99.90
1806;DHT22;901;48.142;11.516;2022-09-29T16:59:48;10.60;99.90